KSBA/SBA METAR and TAF weather

Enter ICAO airport designator
Station Type Date Time Source
KSBA METAR 2021/09/23 17:53 UTC NOAA

KSBA 231753Z 14007KT 6SM HZ FEW006 17/14 A2992 RMK AO2 SLP133 T01720139 10178 20150 58002 $


Station Type Date Time Source
KSBA Decoded METAR 2021/09/23 17:53 UTC NOAA

SANTA BARBARA MUNICIPAL, CA, United States (KSBA) 34-26N 119-51W 3M
Sep 23, 2021 - 01:53 PM EDT / 2021.09.23 1753 UTC
Wind: from the SE (140 degrees) at 8 MPH (7 KT):0
Visibility: 6 mile(s):0
Sky conditions: mostly clear
Weather: haze
Temperature: 63.0 F (17.2 C)
Dew Point: 57.0 F (13.9 C)
Relative Humidity: 80%
Pressure (altimeter): 29.92 in. Hg (1013 hPa)
Pressure tendency: 0.01 inches (0.2 hPa) lower than three hours ago
ob: KSBA 231753Z 14007KT 6SM HZ FEW006 17/14 A2992 RMK AO2 SLP133 T01720139 10178 20150 58002
cycle: 18

Station Type Date Time Source
KSBA TAF 2021/09/23 18:34 UTC NOAA

TAF KSBA 231732Z 2318/2418 13007KT P6SM SCT006
FM232100 24009KT P6SM SKC
FM240200 VRB03KT P6SM SKC
FM240500 VRB03KT 6SM BR OVC007
FM240900 VRB03KT 2SM BR OVC005
FM241500 VRB03KT 5SM BR OVC007

Example: see airport list